UAL402 KORD-CYKF
Flight info
| Callsign | UAL402 |
|---|---|
| Flight time | 0h 59m |
| Altitude | 37000 |
| Route | EBAKE DCT WISMO DCT POSTS DCT PADDE DCT SVM DCT DERLO |
| Aircraft | B38M/M-SDE1FGHILORVWXY/HB1 |
Departure
| Time | 2026-05-05 22:57 |
|---|---|
| Airport | Chicago O'Hare International Airport (KORD) |
Arrival
| Time | 2026-05-05 23:56 |
|---|---|
| Airport | Region of Waterloo International Airport (CYKF) |
| Time | Latitude | Longitude | Altitude | Speed | Heading |
|---|---|---|---|---|---|
| 2026-05-05 22:25 | 41.97383 | -87.90265 | 670 ft | 0 kts | 309° |
| 2026-05-05 22:45 | 41.97380 | -87.90251 | 670 ft | 2 kts | 254° |
| 2026-05-05 22:45 | 41.97388 | -87.90232 | 668 ft | 2 kts | 225° |
| 2026-05-05 22:45 | 41.97401 | -87.90218 | 669 ft | 2 kts | 210° |
| 2026-05-05 22:45 | 41.97413 | -87.90211 | 667 ft | 1 kts | 191° |
| 2026-05-05 22:46 | 41.97414 | -87.90211 | 667 ft | 0 kts | 187° |
| 2026-05-05 22:51 | 41.97414 | -87.90210 | 667 ft | 0 kts | 182° |
| 2026-05-05 22:51 | 41.97372 | -87.90211 | 667 ft | 12 kts | 180° |
| 2026-05-05 22:51 | 41.97282 | -87.90211 | 670 ft | 11 kts | 180° |
| 2026-05-05 22:51 | 41.97220 | -87.90220 | 670 ft | 4 kts | 218° |
| 2026-05-05 22:52 | 41.97191 | -87.90234 | 670 ft | 6 kts | 186° |
| 2026-05-05 22:52 | 41.97146 | -87.90221 | 668 ft | 8 kts | 132° |
| 2026-05-05 22:52 | 41.97128 | -87.90141 | 669 ft | 6 kts | 134° |
| 2026-05-05 22:52 | 41.97106 | -87.90135 | 669 ft | 4 kts | 179° |
| 2026-05-05 22:53 | 41.97049 | -87.90125 | 671 ft | 9 kts | 140° |
| 2026-05-05 22:53 | 41.97043 | -87.90035 | 672 ft | 11 kts | 89° |
| 2026-05-05 22:53 | 41.97043 | -87.89927 | 672 ft | 13 kts | 90° |
| 2026-05-05 22:53 | 41.97043 | -87.89799 | 672 ft | 14 kts | 90° |
| 2026-05-05 22:54 | 41.97043 | -87.89664 | 672 ft | 12 kts | 90° |
| 2026-05-05 22:54 | 41.97026 | -87.89573 | 671 ft | 7 kts | 150° |
| 2026-05-05 22:54 | 41.96984 | -87.89566 | 673 ft | 0 kts | 181° |
| 2026-05-05 22:55 | 41.96968 | -87.89567 | 673 ft | 7 kts | 182° |
| 2026-05-05 22:55 | 41.96910 | -87.89581 | 670 ft | 1 kts | 236° |
| 2026-05-05 22:55 | 41.96908 | -87.89598 | 673 ft | 3 kts | 263° |
| 2026-05-05 22:56 | 41.96907 | -87.89619 | 673 ft | 0 kts | 269° |
| 2026-05-05 22:56 | 41.96906 | -87.90005 | 672 ft | 86 kts | 270° |
| 2026-05-05 22:56 | 41.96906 | -87.91167 | 737 ft | 152 kts | 272° |
| 2026-05-05 22:57 | 41.96912 | -87.92699 | 1449 ft | 176 kts | 271° |
| 2026-05-05 22:57 | 41.96896 | -87.94437 | 2368 ft | 197 kts | 270° |
| 2026-05-05 22:57 | 41.96852 | -87.96375 | 3120 ft | 219 kts | 270° |
| 2026-05-05 22:57 | 41.96779 | -87.98515 | 3788 ft | 239 kts | 269° |
| 2026-05-05 22:58 | 41.96976 | -88.00792 | 4426 ft | 252 kts | 293° |
| 2026-05-05 22:58 | 41.98111 | -88.02508 | 5348 ft | 249 kts | 330° |
| 2026-05-05 22:58 | 41.99787 | -88.03062 | 6310 ft | 260 kts | 357° |
| 2026-05-05 22:58 | 42.01596 | -88.02620 | 7176 ft | 273 kts | 18° |
| 2026-05-05 22:59 | 42.03174 | -88.01076 | 7916 ft | 293 kts | 50° |
| 2026-05-05 22:59 | 42.04045 | -87.98551 | 8706 ft | 305 kts | 75° |
| 2026-05-05 22:59 | 42.04671 | -87.95763 | 9481 ft | 317 kts | 72° |
| 2026-05-05 22:59 | 42.05389 | -87.92915 | 10211 ft | 327 kts | 71° |
| 2026-05-05 23:00 | 42.07006 | -87.86873 | 11304 ft | 357 kts | 69° |
| 2026-05-05 23:00 | 42.07873 | -87.83684 | 11952 ft | 368 kts | 69° |
| 2026-05-05 23:00 | 42.08749 | -87.80423 | 12755 ft | 373 kts | 69° |
| 2026-05-05 23:01 | 42.09625 | -87.77117 | 13559 ft | 378 kts | 69° |
| 2026-05-05 23:01 | 42.10513 | -87.73754 | 14255 ft | 383 kts | 69° |
| 2026-05-05 23:01 | 42.11407 | -87.70343 | 14950 ft | 389 kts | 69° |
| 2026-05-05 23:01 | 42.12313 | -87.66886 | 15654 ft | 395 kts | 69° |
| 2026-05-05 23:02 | 42.13233 | -87.63368 | 16352 ft | 400 kts | 69° |
| 2026-05-05 23:02 | 42.14163 | -87.59805 | 17028 ft | 406 kts | 69° |
| 2026-05-05 23:02 | 42.15106 | -87.56186 | 17699 ft | 412 kts | 69° |
| 2026-05-05 23:02 | 42.16060 | -87.52523 | 18312 ft | 418 kts | 69° |
| 2026-05-05 23:03 | 42.17025 | -87.48803 | 18896 ft | 423 kts | 69° |
| 2026-05-05 23:03 | 42.17999 | -87.45042 | 19436 ft | 429 kts | 69° |
| 2026-05-05 23:03 | 42.18989 | -87.41222 | 19992 ft | 433 kts | 70° |
| 2026-05-05 23:03 | 42.19984 | -87.37368 | 20553 ft | 438 kts | 70° |
| 2026-05-05 23:04 | 42.20989 | -87.33470 | 21093 ft | 442 kts | 70° |
| 2026-05-05 23:04 | 42.22003 | -87.29535 | 21635 ft | 446 kts | 71° |
| 2026-05-05 23:04 | 42.23021 | -87.25568 | 22185 ft | 450 kts | 71° |
| 2026-05-05 23:04 | 42.24050 | -87.21554 | 22697 ft | 455 kts | 72° |
| 2026-05-05 23:05 | 42.25072 | -87.17560 | 23217 ft | 459 kts | 72° |
| 2026-05-05 23:05 | 42.26132 | -87.13414 | 23691 ft | 463 kts | 72° |
| 2026-05-05 23:05 | 42.27170 | -87.09345 | 24138 ft | 466 kts | 72° |
| 2026-05-05 23:05 | 42.27918 | -87.05104 | 24550 ft | 464 kts | 88° |
| 2026-05-05 23:06 | 42.28125 | -87.00699 | 24982 ft | 466 kts | 90° |
| 2026-05-05 23:06 | 42.28334 | -86.96316 | 25374 ft | 470 kts | 90° |
| 2026-05-05 23:06 | 42.28525 | -86.91902 | 25801 ft | 472 kts | 90° |
| 2026-05-05 23:06 | 42.28704 | -86.87522 | 26211 ft | 475 kts | 90° |
| 2026-05-05 23:07 | 42.28883 | -86.83056 | 26610 ft | 478 kts | 90° |
| 2026-05-05 23:07 | 42.29061 | -86.78564 | 27004 ft | 481 kts | 90° |
| 2026-05-05 23:07 | 42.29237 | -86.74047 | 27392 ft | 483 kts | 90° |
| 2026-05-05 23:07 | 42.29413 | -86.69499 | 27775 ft | 486 kts | 90° |
| 2026-05-05 23:08 | 42.29588 | -86.64931 | 28151 ft | 489 kts | 90° |
| 2026-05-05 23:08 | 42.29762 | -86.60335 | 28515 ft | 491 kts | 90° |
| 2026-05-05 23:08 | 42.29935 | -86.55712 | 28874 ft | 494 kts | 90° |
| 2026-05-05 23:08 | 42.30107 | -86.51064 | 29207 ft | 497 kts | 90° |
| 2026-05-05 23:09 | 42.30279 | -86.46382 | 29552 ft | 500 kts | 90° |
| 2026-05-05 23:09 | 42.30449 | -86.41682 | 29897 ft | 503 kts | 89° |
| 2026-05-05 23:09 | 42.30619 | -86.36955 | 30172 ft | 506 kts | 89° |
| 2026-05-05 23:09 | 42.30788 | -86.32191 | 30380 ft | 510 kts | 89° |
| 2026-05-05 23:10 | 42.30956 | -86.27387 | 30614 ft | 513 kts | 89° |
| 2026-05-05 23:10 | 42.31124 | -86.22549 | 30823 ft | 518 kts | 89° |
| 2026-05-05 23:10 | 42.31290 | -86.17679 | 31057 ft | 521 kts | 89° |
| 2026-05-05 23:10 | 42.31457 | -86.12761 | 31252 ft | 525 kts | 89° |
| 2026-05-05 23:11 | 42.31483 | -86.07815 | 31484 ft | 527 kts | 93° |
| 2026-05-05 23:11 | 42.31399 | -86.02846 | 31685 ft | 531 kts | 92° |
| 2026-05-05 23:11 | 42.31336 | -85.97838 | 31905 ft | 535 kts | 92° |
| 2026-05-05 23:11 | 42.31282 | -85.92801 | 32122 ft | 538 kts | 92° |
| 2026-05-05 23:12 | 42.31228 | -85.87728 | 32331 ft | 541 kts | 92° |
| 2026-05-05 23:12 | 42.31172 | -85.82627 | 32545 ft | 545 kts | 92° |
| 2026-05-05 23:12 | 42.31112 | -85.77496 | 32748 ft | 548 kts | 91° |
| 2026-05-05 23:12 | 42.31051 | -85.72340 | 32970 ft | 551 kts | 91° |
| 2026-05-05 23:13 | 42.30986 | -85.67149 | 33161 ft | 555 kts | 91° |
| 2026-05-05 23:13 | 42.30919 | -85.61919 | 33366 ft | 557 kts | 91° |
| 2026-05-05 23:13 | 42.30849 | -85.56674 | 33555 ft | 561 kts | 91° |
| 2026-05-05 23:13 | 42.30777 | -85.51400 | 33754 ft | 564 kts | 91° |
| 2026-05-05 23:14 | 42.30701 | -85.46088 | 33932 ft | 567 kts | 91° |
| 2026-05-05 23:14 | 42.30623 | -85.40755 | 34098 ft | 569 kts | 91° |
| 2026-05-05 23:14 | 42.30542 | -85.35415 | 34352 ft | 569 kts | 91° |
| 2026-05-05 23:14 | 42.30458 | -85.30062 | 34547 ft | 571 kts | 91° |
| 2026-05-05 23:15 | 42.30372 | -85.24694 | 34787 ft | 571 kts | 91° |
| 2026-05-05 23:15 | 42.30285 | -85.19404 | 35038 ft | 571 kts | 91° |
| 2026-05-05 23:15 | 42.30194 | -85.14042 | 35282 ft | 571 kts | 91° |
| 2026-05-05 23:15 | 42.30102 | -85.08675 | 35525 ft | 572 kts | 91° |
| 2026-05-05 23:16 | 42.29997 | -85.03308 | 35843 ft | 571 kts | 91° |
| 2026-05-05 23:16 | 42.29868 | -84.97969 | 36248 ft | 567 kts | 91° |
| 2026-05-05 23:16 | 42.29742 | -84.92649 | 36543 ft | 567 kts | 91° |
| 2026-05-05 23:16 | 42.29615 | -84.87325 | 36764 ft | 568 kts | 91° |
| 2026-05-05 23:17 | 42.29485 | -84.81989 | 36906 ft | 569 kts | 91° |
| 2026-05-05 23:17 | 42.29352 | -84.76638 | 36877 ft | 569 kts | 91° |
| 2026-05-05 23:17 | 42.29081 | -84.65985 | 36850 ft | 567 kts | 91° |
| 2026-05-05 23:18 | 42.28800 | -84.55351 | 36857 ft | 566 kts | 91° |
| 2026-05-05 23:18 | 42.28995 | -84.44789 | 36842 ft | 558 kts | 74° |
| 2026-05-05 23:19 | 42.30451 | -84.34471 | 36835 ft | 560 kts | 75° |
| 2026-05-05 23:19 | 42.31905 | -84.24134 | 36856 ft | 559 kts | 75° |
| 2026-05-05 23:20 | 42.33355 | -84.13846 | 36849 ft | 557 kts | 75° |
| 2026-05-05 23:20 | 42.34796 | -84.03549 | 36846 ft | 558 kts | 75° |
| 2026-05-05 23:21 | 42.36227 | -83.93251 | 36845 ft | 557 kts | 75° |
| 2026-05-05 23:21 | 42.37647 | -83.82966 | 36839 ft | 556 kts | 75° |
| 2026-05-05 23:22 | 42.39055 | -83.72693 | 36842 ft | 556 kts | 75° |
| 2026-05-05 23:22 | 42.40446 | -83.62485 | 36840 ft | 556 kts | 75° |
| 2026-05-05 23:23 | 42.41381 | -83.57452 | 36821 ft | 546 kts | 63° |
| 2026-05-05 23:23 | 42.42736 | -83.52664 | 36844 ft | 546 kts | 63° |
| 2026-05-05 23:23 | 42.45379 | -83.43042 | 36829 ft | 543 kts | 64° |
| 2026-05-05 23:24 | 42.48013 | -83.33445 | 36826 ft | 544 kts | 64° |
| 2026-05-05 23:24 | 42.50642 | -83.23838 | 36825 ft | 544 kts | 64° |
| 2026-05-05 23:25 | 42.53264 | -83.14215 | 36808 ft | 544 kts | 64° |
| 2026-05-05 23:25 | 42.55867 | -83.04625 | 36819 ft | 540 kts | 64° |
| 2026-05-05 23:26 | 42.58455 | -82.95052 | 36800 ft | 541 kts | 64° |
| 2026-05-05 23:26 | 42.61038 | -82.85465 | 36795 ft | 541 kts | 64° |
| 2026-05-05 23:27 | 42.62324 | -82.80674 | 36580 ft | 538 kts | 64° |
| 2026-05-05 23:27 | 42.63607 | -82.75888 | 35605 ft | 544 kts | 65° |
| 2026-05-05 23:27 | 42.64904 | -82.71041 | 34781 ft | 546 kts | 66° |
| 2026-05-05 23:27 | 42.66189 | -82.66219 | 34358 ft | 539 kts | 67° |
| 2026-05-05 23:28 | 42.67456 | -82.61462 | 33949 ft | 532 kts | 67° |
| 2026-05-05 23:28 | 42.68708 | -82.56757 | 33395 ft | 528 kts | 68° |
| 2026-05-05 23:28 | 42.69953 | -82.52064 | 32757 ft | 526 kts | 68° |
| 2026-05-05 23:28 | 42.71188 | -82.47401 | 32195 ft | 523 kts | 68° |
| 2026-05-05 23:29 | 42.72411 | -82.42775 | 31694 ft | 518 kts | 68° |
| 2026-05-05 23:29 | 42.73625 | -82.38176 | 31160 ft | 514 kts | 69° |
| 2026-05-05 23:29 | 42.74827 | -82.33614 | 30635 ft | 511 kts | 69° |
| 2026-05-05 23:29 | 42.76005 | -82.29130 | 30107 ft | 509 kts | 69° |
| 2026-05-05 23:30 | 42.77193 | -82.24601 | 29513 ft | 507 kts | 69° |
| 2026-05-05 23:30 | 42.77993 | -82.21550 | 29096 ft | 506 kts | 69° |
| 2026-05-05 23:30 | 42.79546 | -82.15610 | 28404 ft | 500 kts | 70° |
| 2026-05-05 23:30 | 42.80331 | -82.12603 | 28058 ft | 498 kts | 70° |
| 2026-05-05 23:31 | 42.81855 | -82.06752 | 27378 ft | 493 kts | 70° |
| 2026-05-05 23:31 | 42.82995 | -82.02368 | 26870 ft | 489 kts | 70° |
| 2026-05-05 23:31 | 42.84124 | -81.98015 | 26368 ft | 486 kts | 70° |
| 2026-05-05 23:31 | 42.85245 | -81.93687 | 25899 ft | 483 kts | 71° |
| 2026-05-05 23:32 | 42.85997 | -81.90779 | 25563 ft | 480 kts | 71° |
| 2026-05-05 23:32 | 42.87102 | -81.86498 | 25077 ft | 477 kts | 71° |
| 2026-05-05 23:32 | 42.88198 | -81.82245 | 24600 ft | 475 kts | 71° |
| 2026-05-05 23:32 | 42.89289 | -81.78005 | 24128 ft | 472 kts | 71° |
| 2026-05-05 23:33 | 42.90371 | -81.73792 | 23666 ft | 470 kts | 71° |
| 2026-05-05 23:33 | 42.91447 | -81.69596 | 23148 ft | 467 kts | 72° |
| 2026-05-05 23:33 | 42.92515 | -81.65423 | 22643 ft | 464 kts | 72° |
| 2026-05-05 23:33 | 42.93559 | -81.61337 | 22183 ft | 461 kts | 72° |
| 2026-05-05 23:34 | 42.94607 | -81.57227 | 21717 ft | 457 kts | 72° |
| 2026-05-05 23:34 | 42.95648 | -81.53142 | 21256 ft | 454 kts | 72° |
| 2026-05-05 23:34 | 42.96679 | -81.49085 | 20811 ft | 451 kts | 73° |
| 2026-05-05 23:34 | 42.97701 | -81.45057 | 20353 ft | 448 kts | 73° |
| 2026-05-05 23:35 | 42.98716 | -81.41049 | 19892 ft | 445 kts | 73° |
| 2026-05-05 23:35 | 42.99724 | -81.37061 | 19447 ft | 443 kts | 73° |
| 2026-05-05 23:35 | 43.00726 | -81.33094 | 19008 ft | 441 kts | 73° |
| 2026-05-05 23:35 | 43.01723 | -81.29140 | 18552 ft | 439 kts | 73° |
| 2026-05-05 23:36 | 43.02713 | -81.25206 | 18091 ft | 437 kts | 73° |
| 2026-05-05 23:36 | 43.03701 | -81.21285 | 17596 ft | 435 kts | 73° |
| 2026-05-05 23:36 | 43.04678 | -81.17392 | 17137 ft | 432 kts | 73° |
| 2026-05-05 23:36 | 43.05648 | -81.13522 | 16700 ft | 429 kts | 73° |
| 2026-05-05 23:37 | 43.06742 | -81.09744 | 16159 ft | 429 kts | 60° |
| 2026-05-05 23:37 | 43.08523 | -81.06506 | 15821 ft | 423 kts | 47° |
| 2026-05-05 23:37 | 43.10431 | -81.03471 | 15396 ft | 420 kts | 47° |
| 2026-05-05 23:37 | 43.12322 | -81.00438 | 14958 ft | 417 kts | 47° |
| 2026-05-05 23:38 | 43.14197 | -80.97430 | 14536 ft | 414 kts | 46° |
| 2026-05-05 23:38 | 43.16063 | -80.94434 | 14116 ft | 412 kts | 46° |
| 2026-05-05 23:38 | 43.17915 | -80.91459 | 13688 ft | 409 kts | 46° |
| 2026-05-05 23:38 | 43.19759 | -80.88494 | 13206 ft | 407 kts | 47° |
| 2026-05-05 23:39 | 43.21586 | -80.85551 | 12772 ft | 404 kts | 47° |
| 2026-05-05 23:39 | 43.23398 | -80.82630 | 12379 ft | 400 kts | 47° |
| 2026-05-05 23:39 | 43.25185 | -80.79747 | 12076 ft | 394 kts | 47° |
| 2026-05-05 23:39 | 43.26949 | -80.76899 | 11730 ft | 390 kts | 46° |
| 2026-05-05 23:40 | 43.28697 | -80.74073 | 11303 ft | 388 kts | 47° |
| 2026-05-05 23:40 | 43.30441 | -80.71250 | 10850 ft | 387 kts | 47° |
| 2026-05-05 23:40 | 43.32150 | -80.68481 | 10448 ft | 382 kts | 47° |
| 2026-05-05 23:40 | 43.33835 | -80.65751 | 10130 ft | 366 kts | 47° |
| 2026-05-05 23:41 | 43.35439 | -80.63148 | 9959 ft | 348 kts | 47° |
| 2026-05-05 23:41 | 43.36976 | -80.60652 | 9620 ft | 337 kts | 47° |
| 2026-05-05 23:41 | 43.38476 | -80.58216 | 9183 ft | 330 kts | 47° |
| 2026-05-05 23:41 | 43.39937 | -80.55839 | 8828 ft | 320 kts | 47° |
| 2026-05-05 23:42 | 43.41354 | -80.53533 | 8447 ft | 312 kts | 46° |
| 2026-05-05 23:42 | 43.42735 | -80.51280 | 8090 ft | 303 kts | 46° |
| 2026-05-05 23:42 | 43.44075 | -80.49095 | 7794 ft | 294 kts | 46° |
| 2026-05-05 23:42 | 43.45373 | -80.46979 | 7490 ft | 285 kts | 46° |
| 2026-05-05 23:43 | 43.46632 | -80.44922 | 7190 ft | 277 kts | 45° |
| 2026-05-05 23:43 | 43.47855 | -80.42926 | 6902 ft | 269 kts | 45° |
| 2026-05-05 23:43 | 43.49039 | -80.40988 | 6626 ft | 260 kts | 45° |
| 2026-05-05 23:43 | 43.50333 | -80.39385 | 6350 ft | 241 kts | 20° |
| 2026-05-05 23:44 | 43.51854 | -80.38893 | 6071 ft | 213 kts | 347° |
| 2026-05-05 23:44 | 43.53205 | -80.39377 | 5868 ft | 192 kts | 332° |
| 2026-05-05 23:44 | 43.54402 | -80.40025 | 5748 ft | 178 kts | 330° |
| 2026-05-05 23:44 | 43.55565 | -80.40659 | 5687 ft | 185 kts | 335° |
| 2026-05-05 23:45 | 43.56898 | -80.40700 | 5648 ft | 203 kts | 11° |
| 2026-05-05 23:45 | 43.58037 | -80.39593 | 5642 ft | 205 kts | 49° |
| 2026-05-05 23:45 | 43.58632 | -80.37804 | 5611 ft | 207 kts | 69° |
| 2026-05-05 23:45 | 43.59053 | -80.35900 | 5571 ft | 208 kts | 70° |
| 2026-05-05 23:46 | 43.59461 | -80.34012 | 5378 ft | 204 kts | 70° |
| 2026-05-05 23:46 | 43.59859 | -80.32140 | 5114 ft | 201 kts | 70° |
| 2026-05-05 23:46 | 43.60249 | -80.30305 | 4851 ft | 198 kts | 70° |
| 2026-05-05 23:46 | 43.60632 | -80.28501 | 4604 ft | 194 kts | 70° |
| 2026-05-05 23:47 | 43.61005 | -80.26723 | 4342 ft | 191 kts | 70° |
| 2026-05-05 23:47 | 43.61384 | -80.24975 | 4084 ft | 188 kts | 71° |
| 2026-05-05 23:47 | 43.61770 | -80.23269 | 3985 ft | 185 kts | 70° |
| 2026-05-05 23:47 | 43.62155 | -80.21579 | 3972 ft | 185 kts | 70° |
| 2026-05-05 23:48 | 43.62553 | -80.19834 | 3942 ft | 198 kts | 70° |
| 2026-05-05 23:48 | 43.62980 | -80.17989 | 3976 ft | 205 kts | 70° |
| 2026-05-05 23:48 | 43.63415 | -80.16100 | 4019 ft | 208 kts | 70° |
| 2026-05-05 23:48 | 43.63699 | -80.14140 | 3989 ft | 211 kts | 92° |
| 2026-05-05 23:49 | 43.63212 | -80.12271 | 3933 ft | 209 kts | 130° |
| 2026-05-05 23:49 | 43.62066 | -80.11090 | 3991 ft | 208 kts | 157° |
| 2026-05-05 23:49 | 43.60790 | -80.10328 | 4059 ft | 210 kts | 160° |
| 2026-05-05 23:49 | 43.59435 | -80.09553 | 4049 ft | 211 kts | 160° |
| 2026-05-05 23:50 | 43.58083 | -80.08776 | 4026 ft | 210 kts | 165° |
| 2026-05-05 23:50 | 43.56694 | -80.08674 | 3952 ft | 194 kts | 201° |
| 2026-05-05 23:50 | 43.55602 | -80.09559 | 3998 ft | 176 kts | 232° |
| 2026-05-05 23:50 | 43.55068 | -80.10978 | 3985 ft | 165 kts | 254° |
| 2026-05-05 23:51 | 43.54644 | -80.12449 | 3938 ft | 163 kts | 251° |
| 2026-05-05 23:51 | 43.54189 | -80.13897 | 3562 ft | 165 kts | 249° |
| 2026-05-05 23:51 | 43.53725 | -80.15325 | 3250 ft | 162 kts | 249° |
| 2026-05-05 23:51 | 43.53266 | -80.16715 | 3059 ft | 157 kts | 248° |
| 2026-05-05 23:52 | 43.52817 | -80.18070 | 2852 ft | 153 kts | 247° |
| 2026-05-05 23:52 | 43.52367 | -80.19423 | 2334 ft | 157 kts | 246° |
| 2026-05-05 23:52 | 43.51915 | -80.20770 | 1918 ft | 152 kts | 246° |
| 2026-05-05 23:52 | 43.51475 | -80.22087 | 1827 ft | 153 kts | 246° |
| 2026-05-05 23:53 | 43.51028 | -80.23420 | 1842 ft | 157 kts | 246° |
| 2026-05-05 23:53 | 43.50561 | -80.24811 | 1841 ft | 158 kts | 246° |
| 2026-05-05 23:53 | 43.50106 | -80.26165 | 1866 ft | 157 kts | 247° |
| 2026-05-05 23:53 | 43.49648 | -80.27529 | 1877 ft | 157 kts | 247° |
| 2026-05-05 23:54 | 43.49191 | -80.28893 | 1876 ft | 157 kts | 246° |
| 2026-05-05 23:54 | 43.48731 | -80.30260 | 1866 ft | 157 kts | 247° |
| 2026-05-05 23:54 | 43.48275 | -80.31620 | 1832 ft | 154 kts | 246° |
| 2026-05-05 23:54 | 43.47836 | -80.32918 | 1691 ft | 146 kts | 247° |
| 2026-05-05 23:55 | 43.47417 | -80.34164 | 1486 ft | 141 kts | 246° |
| 2026-05-05 23:55 | 43.47004 | -80.35387 | 1305 ft | 140 kts | 248° |
| 2026-05-05 23:55 | 43.46598 | -80.36597 | 1079 ft | 139 kts | 247° |
| 2026-05-05 23:55 | 43.46244 | -80.37654 | 1038 ft | 89 kts | 245° |
| 2026-05-05 23:56 | 43.46077 | -80.38152 | 1037 ft | 27 kts | 243° |
| 2026-05-05 23:56 | 43.46046 | -80.38237 | 1037 ft | 8 kts | 245° |
| 2026-05-05 23:56 | 43.46018 | -80.38319 | 1037 ft | 11 kts | 245° |
| 2026-05-05 23:56 | 43.45981 | -80.38429 | 1037 ft | 14 kts | 245° |
| 2026-05-05 23:57 | 43.45941 | -80.38568 | 1040 ft | 17 kts | 253° |
| 2026-05-05 23:57 | 43.45985 | -80.38703 | 1041 ft | 17 kts | 307° |
| 2026-05-05 23:57 | 43.46065 | -80.38841 | 1039 ft | 20 kts | 308° |
| 2026-05-05 23:57 | 43.46146 | -80.38982 | 1040 ft | 18 kts | 308° |
| 2026-05-05 23:58 | 43.46224 | -80.39123 | 1038 ft | 8 kts | 296° |
| 2026-05-05 23:58 | 43.46201 | -80.39192 | 1039 ft | 9 kts | 220° |
| 2026-05-05 23:58 | 43.46140 | -80.39210 | 1039 ft | 10 kts | 175° |
| 2026-05-05 23:58 | 43.46064 | -80.39177 | 1039 ft | 13 kts | 149° |
| 2026-05-05 23:59 | 43.45980 | -80.39108 | 1038 ft | 15 kts | 149° |
| 2026-05-05 23:59 | 43.45889 | -80.39033 | 1038 ft | 14 kts | 148° |
| 2026-05-05 23:59 | 43.45814 | -80.38970 | 1041 ft | 12 kts | 152° |
| 2026-05-05 23:59 | 43.45731 | -80.38918 | 1039 ft | 11 kts | 156° |
| 2026-05-06 00:00 | 43.45673 | -80.38864 | 1038 ft | 7 kts | 104° |
| 2026-05-06 00:00 | 43.45689 | -80.38797 | 1038 ft | 9 kts | 63° |
| 2026-05-06 00:00 | 43.45718 | -80.38712 | 1038 ft | 11 kts | 65° |
| 2026-05-06 00:00 | 43.45749 | -80.38614 | 1038 ft | 6 kts | 86° |
| 2026-05-06 00:01 | 43.45726 | -80.38560 | 1038 ft | 8 kts | 127° |
| 2026-05-06 00:01 | 43.45688 | -80.38492 | 1038 ft | 10 kts | 127° |
| 2026-05-06 00:01 | 43.45639 | -80.38406 | 1038 ft | 13 kts | 128° |
| 2026-05-06 00:01 | 43.45588 | -80.38317 | 1038 ft | 11 kts | 128° |
| 2026-05-06 00:02 | 43.45524 | -80.38285 | 1038 ft | 8 kts | 173° |
| 2026-05-06 00:02 | 43.45513 | -80.38287 | 1038 ft | 0 kts | 211° |
| 2026-05-06 00:02 | 43.45511 | -80.38290 | 1038 ft | 3 kts | 221° |
| 2026-05-06 00:02 | 43.45496 | -80.38309 | 1038 ft | 0 kts | 223° |